sensor_id;sensor_type;location;lat;lon;timestamp;P1;durP1;ratioP1;P2;durP2;ratioP2
74624;SDS011;63131;52.298;8.056;2023-03-23T00:00:45;10.68;;;5.25;;
74624;SDS011;63131;52.298;8.056;2023-03-23T00:03:10;11.25;;;5.47;;
74624;SDS011;63131;52.298;8.056;2023-03-23T00:05:35;11.57;;;6.05;;
74624;SDS011;63131;52.298;8.056;2023-03-23T00:08:01;11.80;;;6.13;;
74624;SDS011;63131;52.298;8.056;2023-03-23T00:12:57;10.00;;;5.25;;
74624;SDS011;63131;52.298;8.056;2023-03-23T00:15:27;11.68;;;6.53;;
74624;SDS011;63131;52.298;8.056;2023-03-23T00:17:55;12.75;;;6.63;;
74624;SDS011;63131;52.298;8.056;2023-03-23T00:20:27;13.45;;;6.90;;
74624;SDS011;63131;52.298;8.056;2023-03-23T00:22:54;11.20;;;6.18;;
74624;SDS011;63131;52.298;8.056;2023-03-23T00:25:24;10.82;;;5.60;;
74624;SDS011;63131;52.298;8.056;2023-03-23T00:27:49;11.70;;;6.22;;
74624;SDS011;63131;52.298;8.056;2023-03-23T00:30:15;10.77;;;5.82;;
74624;SDS011;63131;52.298;8.056;2023-03-23T00:32:41;11.63;;;5.22;;
74624;SDS011;63131;52.298;8.056;2023-03-23T00:35:06;11.20;;;5.65;;
74624;SDS011;63131;52.298;8.056;2023-03-23T00:37:33;9.10;;;4.68;;
74624;SDS011;63131;52.298;8.056;2023-03-23T00:40:00;11.60;;;5.45;;
74624;SDS011;63131;52.298;8.056;2023-03-23T00:42:26;13.80;;;6.32;;
74624;SDS011;63131;52.298;8.056;2023-03-23T00:44:53;12.90;;;5.90;;
74624;SDS011;63131;52.298;8.056;2023-03-23T00:47:25;11.55;;;5.80;;
74624;SDS011;63131;52.298;8.056;2023-03-23T00:49:50;10.65;;;5.88;;
74624;SDS011;63131;52.298;8.056;2023-03-23T00:52:17;12.02;;;5.72;;
74624;SDS011;63131;52.298;8.056;2023-03-23T00:54:43;11.85;;;5.82;;
74624;SDS011;63131;52.298;8.056;2023-03-23T00:57:08;11.25;;;5.90;;
74624;SDS011;63131;52.298;8.056;2023-03-23T00:59:34;12.82;;;6.25;;
74624;SDS011;63131;52.298;8.056;2023-03-23T01:02:00;10.15;;;5.95;;
74624;SDS011;63131;52.298;8.056;2023-03-23T01:04:25;10.60;;;5.05;;
74624;SDS011;63131;52.298;8.056;2023-03-23T01:06:53;11.32;;;5.65;;
74624;SDS011;63131;52.298;8.056;2023-03-23T01:09:19;12.30;;;5.55;;
74624;SDS011;63131;52.298;8.056;2023-03-23T01:11:46;10.82;;;5.30;;
74624;SDS011;63131;52.298;8.056;2023-03-23T01:16:38;10.32;;;5.22;;
74624;SDS011;63131;52.298;8.056;2023-03-23T01:19:03;11.75;;;5.30;;
74624;SDS011;63131;52.298;8.056;2023-03-23T01:21:28;9.75;;;4.95;;
74624;SDS011;63131;52.298;8.056;2023-03-23T01:23:54;10.05;;;4.85;;
74624;SDS011;63131;52.298;8.056;2023-03-23T01:26:21;11.18;;;6.03;;
74624;SDS011;63131;52.298;8.056;2023-03-23T01:28:47;10.00;;;4.68;;
74624;SDS011;63131;52.298;8.056;2023-03-23T01:31:17;9.70;;;4.50;;
74624;SDS011;63131;52.298;8.056;2023-03-23T01:33:44;10.43;;;4.60;;
74624;SDS011;63131;52.298;8.056;2023-03-23T01:36:11;8.68;;;4.20;;
74624;SDS011;63131;52.298;8.056;2023-03-23T01:38:38;9.93;;;4.95;;
74624;SDS011;63131;52.298;8.056;2023-03-23T01:41:03;8.23;;;3.70;;
74624;SDS011;63131;52.298;8.056;2023-03-23T01:43:29;9.20;;;4.25;;
74624;SDS011;63131;52.298;8.056;2023-03-23T01:45:55;11.48;;;4.65;;
74624;SDS011;63131;52.298;8.056;2023-03-23T01:48:22;8.05;;;3.85;;
74624;SDS011;63131;52.298;8.056;2023-03-23T01:53:20;10.15;;;4.40;;
74624;SDS011;63131;52.298;8.056;2023-03-23T01:55:46;10.45;;;4.35;;
74624;SDS011;63131;52.298;8.056;2023-03-23T01:58:16;11.65;;;4.60;;
74624;SDS011;63131;52.298;8.056;2023-03-23T02:00:42;8.70;;;4.00;;
74624;SDS011;63131;52.298;8.056;2023-03-23T02:03:08;9.00;;;4.38;;
74624;SDS011;63131;52.298;8.056;2023-03-23T02:05:39;9.52;;;4.30;;
74624;SDS011;63131;52.298;8.056;2023-03-23T02:08:05;8.55;;;3.08;;
74624;SDS011;63131;52.298;8.056;2023-03-23T02:10:33;8.98;;;3.42;;
74624;SDS011;63131;52.298;8.056;2023-03-23T02:13:00;8.95;;;3.95;;
74624;SDS011;63131;52.298;8.056;2023-03-23T02:15:27;8.43;;;3.88;;
74624;SDS011;63131;52.298;8.056;2023-03-23T02:18:00;9.43;;;3.33;;
74624;SDS011;63131;52.298;8.056;2023-03-23T02:20:38;8.88;;;3.63;;
74624;SDS011;63131;52.298;8.056;2023-03-23T02:25:55;8.23;;;3.65;;
74624;SDS011;63131;52.298;8.056;2023-03-23T02:31:08;9.48;;;4.13;;
74624;SDS011;63131;52.298;8.056;2023-03-23T02:36:39;8.95;;;3.92;;
74624;SDS011;63131;52.298;8.056;2023-03-23T02:39:22;7.93;;;3.60;;
74624;SDS011;63131;52.298;8.056;2023-03-23T02:41:51;8.60;;;3.45;;
74624;SDS011;63131;52.298;8.056;2023-03-23T02:44:19;7.70;;;3.20;;
74624;SDS011;63131;52.298;8.056;2023-03-23T02:46:45;8.38;;;3.05;;
74624;SDS011;63131;52.298;8.056;2023-03-23T02:49:11;7.18;;;2.97;;
74624;SDS011;63131;52.298;8.056;2023-03-23T02:51:38;9.75;;;3.55;;
74624;SDS011;63131;52.298;8.056;2023-03-23T02:54:04;9.02;;;3.78;;
74624;SDS011;63131;52.298;8.056;2023-03-23T02:56:30;9.77;;;3.30;;
74624;SDS011;63131;52.298;8.056;2023-03-23T02:58:57;9.25;;;3.55;;
74624;SDS011;63131;52.298;8.056;2023-03-23T03:03:52;9.20;;;3.72;;
74624;SDS011;63131;52.298;8.056;2023-03-23T03:06:26;9.23;;;3.42;;
74624;SDS011;63131;52.298;8.056;2023-03-23T03:09:01;8.75;;;3.17;;
74624;SDS011;63131;52.298;8.056;2023-03-23T03:11:31;8.95;;;3.45;;
74624;SDS011;63131;52.298;8.056;2023-03-23T03:19:26;11.18;;;4.13;;
74624;SDS011;63131;52.298;8.056;2023-03-23T03:21:54;8.27;;;3.75;;
74624;SDS011;63131;52.298;8.056;2023-03-23T03:24:22;9.68;;;3.90;;
74624;SDS011;63131;52.298;8.056;2023-03-23T03:26:50;8.48;;;3.42;;
74624;SDS011;63131;52.298;8.056;2023-03-23T03:29:18;7.70;;;3.05;;
74624;SDS011;63131;52.298;8.056;2023-03-23T03:31:46;8.85;;;3.10;;
74624;SDS011;63131;52.298;8.056;2023-03-23T03:34:13;10.18;;;3.22;;
74624;SDS011;63131;52.298;8.056;2023-03-23T03:36:42;10.25;;;3.92;;
74624;SDS011;63131;52.298;8.056;2023-03-23T03:39:11;7.75;;;2.88;;
74624;SDS011;63131;52.298;8.056;2023-03-23T03:41:40;8.73;;;3.10;;
74624;SDS011;63131;52.298;8.056;2023-03-23T03:44:05;9.70;;;3.75;;
74624;SDS011;63131;52.298;8.056;2023-03-23T03:46:31;8.80;;;2.75;;
74624;SDS011;63131;52.298;8.056;2023-03-23T03:48:57;7.78;;;2.42;;
74624;SDS011;63131;52.298;8.056;2023-03-23T03:53:49;7.03;;;2.40;;
74624;SDS011;63131;52.298;8.056;2023-03-23T03:56:14;6.95;;;2.75;;
74624;SDS011;63131;52.298;8.056;2023-03-23T03:58:40;6.70;;;2.60;;
74624;SDS011;63131;52.298;8.056;2023-03-23T04:01:07;8.13;;;2.45;;
74624;SDS011;63131;52.298;8.056;2023-03-23T04:03:35;6.57;;;2.30;;
74624;SDS011;63131;52.298;8.056;2023-03-23T04:06:01;6.13;;;2.30;;
74624;SDS011;63131;52.298;8.056;2023-03-23T04:10:52;6.88;;;2.50;;
74624;SDS011;63131;52.298;8.056;2023-03-23T04:13:18;7.85;;;2.17;;
74624;SDS011;63131;52.298;8.056;2023-03-23T04:15:44;6.40;;;1.90;;
74624;SDS011;63131;52.298;8.056;2023-03-23T04:18:10;5.45;;;1.80;;
74624;SDS011;63131;52.298;8.056;2023-03-23T04:23:02;7.05;;;2.28;;
74624;SDS011;63131;52.298;8.056;2023-03-23T04:25:28;6.07;;;2.55;;
74624;SDS011;63131;52.298;8.056;2023-03-23T04:27:53;6.60;;;2.15;;
74624;SDS011;63131;52.298;8.056;2023-03-23T04:30:20;8.10;;;2.38;;
74624;SDS011;63131;52.298;8.056;2023-03-23T04:32:47;7.38;;;2.30;;
74624;SDS011;63131;52.298;8.056;2023-03-23T04:35:15;7.95;;;2.40;;
74624;SDS011;63131;52.298;8.056;2023-03-23T04:37:42;6.95;;;2.47;;
74624;SDS011;63131;52.298;8.056;2023-03-23T04:40:08;6.70;;;2.58;;
74624;SDS011;63131;52.298;8.056;2023-03-23T04:42:37;7.85;;;2.67;;
74624;SDS011;63131;52.298;8.056;2023-03-23T04:47:30;6.00;;;2.63;;
74624;SDS011;63131;52.298;8.056;2023-03-23T04:49:57;6.20;;;2.15;;
74624;SDS011;63131;52.298;8.056;2023-03-23T04:52:26;7.20;;;2.92;;
74624;SDS011;63131;52.298;8.056;2023-03-23T04:54:53;9.98;;;2.67;;
74624;SDS011;63131;52.298;8.056;2023-03-23T04:57:20;5.88;;;2.28;;
74624;SDS011;63131;52.298;8.056;2023-03-23T04:59:46;5.72;;;1.90;;
74624;SDS011;63131;52.298;8.056;2023-03-23T05:02:11;6.22;;;2.10;;
74624;SDS011;63131;52.298;8.056;2023-03-23T05:04:38;6.53;;;2.60;;
74624;SDS011;63131;52.298;8.056;2023-03-23T05:07:05;6.05;;;2.30;;
74624;SDS011;63131;52.298;8.056;2023-03-23T05:09:31;7.15;;;2.22;;
74624;SDS011;63131;52.298;8.056;2023-03-23T05:11:57;6.93;;;2.42;;
74624;SDS011;63131;52.298;8.056;2023-03-23T05:14:24;7.07;;;2.25;;
74624;SDS011;63131;52.298;8.056;2023-03-23T05:16:50;6.85;;;2.67;;
74624;SDS011;63131;52.298;8.056;2023-03-23T05:19:17;5.65;;;2.28;;
74624;SDS011;63131;52.298;8.056;2023-03-23T05:21:42;7.88;;;3.08;;
74624;SDS011;63131;52.298;8.056;2023-03-23T05:24:09;5.82;;;1.98;;
74624;SDS011;63131;52.298;8.056;2023-03-23T05:26:34;7.30;;;2.80;;
74624;SDS011;63131;52.298;8.056;2023-03-23T05:28:59;7.32;;;2.72;;
74624;SDS011;63131;52.298;8.056;2023-03-23T05:31:25;7.25;;;2.65;;
74624;SDS011;63131;52.298;8.056;2023-03-23T05:33:50;6.32;;;2.60;;
74624;SDS011;63131;52.298;8.056;2023-03-23T05:36:16;7.13;;;2.58;;
74624;SDS011;63131;52.298;8.056;2023-03-23T05:38:44;6.65;;;2.40;;
74624;SDS011;63131;52.298;8.056;2023-03-23T05:41:12;6.75;;;2.30;;
74624;SDS011;63131;52.298;8.056;2023-03-23T05:43:38;6.93;;;2.50;;
74624;SDS011;63131;52.298;8.056;2023-03-23T05:48:29;7.57;;;2.67;;
74624;SDS011;63131;52.298;8.056;2023-03-23T05:50:55;6.75;;;2.60;;
74624;SDS011;63131;52.298;8.056;2023-03-23T05:53:21;6.97;;;2.85;;
74624;SDS011;63131;52.298;8.056;2023-03-23T05:55:46;7.03;;;2.40;;
74624;SDS011;63131;52.298;8.056;2023-03-23T05:58:11;7.13;;;2.72;;
74624;SDS011;63131;52.298;8.056;2023-03-23T06:00:37;6.85;;;2.60;;
74624;SDS011;63131;52.298;8.056;2023-03-23T06:03:02;5.97;;;2.10;;
74624;SDS011;63131;52.298;8.056;2023-03-23T06:05:28;6.35;;;2.30;;
74624;SDS011;63131;52.298;8.056;2023-03-23T06:07:54;6.82;;;2.58;;
74624;SDS011;63131;52.298;8.056;2023-03-23T06:10:19;7.28;;;2.40;;
74624;SDS011;63131;52.298;8.056;2023-03-23T06:13:06;7.97;;;2.70;;
74624;SDS011;63131;52.298;8.056;2023-03-23T06:15:31;7.13;;;2.78;;
74624;SDS011;63131;52.298;8.056;2023-03-23T06:18:03;7.32;;;2.72;;
74624;SDS011;63131;52.298;8.056;2023-03-23T06:20:30;8.77;;;2.95;;
74624;SDS011;63131;52.298;8.056;2023-03-23T06:22:55;6.90;;;2.33;;
74624;SDS011;63131;52.298;8.056;2023-03-23T06:25:21;6.72;;;2.60;;
74624;SDS011;63131;52.298;8.056;2023-03-23T06:27:47;6.85;;;2.95;;
74624;SDS011;63131;52.298;8.056;2023-03-23T06:30:13;7.40;;;2.80;;
74624;SDS011;63131;52.298;8.056;2023-03-23T06:32:41;7.78;;;2.60;;
74624;SDS011;63131;52.298;8.056;2023-03-23T06:35:09;8.77;;;3.03;;
74624;SDS011;63131;52.298;8.056;2023-03-23T06:37:35;7.38;;;2.72;;
74624;SDS011;63131;52.298;8.056;2023-03-23T06:40:01;7.25;;;2.70;;
74624;SDS011;63131;52.298;8.056;2023-03-23T06:42:29;6.68;;;2.38;;
74624;SDS011;63131;52.298;8.056;2023-03-23T06:44:55;6.65;;;2.75;;
74624;SDS011;63131;52.298;8.056;2023-03-23T06:47:22;6.95;;;2.60;;
74624;SDS011;63131;52.298;8.056;2023-03-23T06:49:48;8.15;;;2.85;;
74624;SDS011;63131;52.298;8.056;2023-03-23T06:52:13;7.35;;;2.65;;
74624;SDS011;63131;52.298;8.056;2023-03-23T06:54:39;9.43;;;2.75;;
74624;SDS011;63131;52.298;8.056;2023-03-23T06:57:04;9.82;;;2.90;;
74624;SDS011;63131;52.298;8.056;2023-03-23T06:59:29;7.55;;;2.42;;
74624;SDS011;63131;52.298;8.056;2023-03-23T07:01:55;9.38;;;3.38;;
74624;SDS011;63131;52.298;8.056;2023-03-23T07:04:21;7.30;;;2.60;;
74624;SDS011;63131;52.298;8.056;2023-03-23T07:06:48;8.15;;;2.83;;
74624;SDS011;63131;52.298;8.056;2023-03-23T07:09:13;7.55;;;3.30;;
74624;SDS011;63131;52.298;8.056;2023-03-23T07:11:39;8.27;;;2.95;;
74624;SDS011;63131;52.298;8.056;2023-03-23T07:14:04;7.57;;;3.38;;
74624;SDS011;63131;52.298;8.056;2023-03-23T07:16:29;10.13;;;2.58;;
74624;SDS011;63131;52.298;8.056;2023-03-23T07:21:21;7.80;;;2.33;;
74624;SDS011;63131;52.298;8.056;2023-03-23T07:23:46;7.55;;;2.40;;
74624;SDS011;63131;52.298;8.056;2023-03-23T07:26:11;6.22;;;2.58;;
74624;SDS011;63131;52.298;8.056;2023-03-23T07:28:37;7.45;;;2.72;;
74624;SDS011;63131;52.298;8.056;2023-03-23T07:31:03;8.98;;;2.75;;
74624;SDS011;63131;52.298;8.056;2023-03-23T07:33:28;7.43;;;2.50;;
74624;SDS011;63131;52.298;8.056;2023-03-23T07:35:53;7.22;;;2.75;;
74624;SDS011;63131;52.298;8.056;2023-03-23T07:38:19;9.20;;;3.00;;
74624;SDS011;63131;52.298;8.056;2023-03-23T07:40:45;8.85;;;3.00;;
74624;SDS011;63131;52.298;8.056;2023-03-23T07:45:36;5.72;;;2.60;;
74624;SDS011;63131;52.298;8.056;2023-03-23T07:48:01;7.90;;;2.88;;
74624;SDS011;63131;52.298;8.056;2023-03-23T07:50:27;7.47;;;2.70;;
74624;SDS011;63131;52.298;8.056;2023-03-23T07:52:54;10.10;;;3.22;;
74624;SDS011;63131;52.298;8.056;2023-03-23T07:55:20;8.30;;;2.85;;
74624;SDS011;63131;52.298;8.056;2023-03-23T08:00:13;8.18;;;3.00;;
74624;SDS011;63131;52.298;8.056;2023-03-23T08:02:47;6.80;;;2.80;;
74624;SDS011;63131;52.298;8.056;2023-03-23T08:05:15;8.35;;;2.85;;
74624;SDS011;63131;52.298;8.056;2023-03-23T08:07:41;7.85;;;2.97;;
74624;SDS011;63131;52.298;8.056;2023-03-23T08:10:08;8.70;;;3.03;;
74624;SDS011;63131;52.298;8.056;2023-03-23T08:12:40;8.77;;;3.00;;
74624;SDS011;63131;52.298;8.056;2023-03-23T08:15:06;7.75;;;3.28;;
74624;SDS011;63131;52.298;8.056;2023-03-23T08:17:33;8.63;;;3.70;;
74624;SDS011;63131;52.298;8.056;2023-03-23T08:19:59;7.32;;;3.20;;
74624;SDS011;63131;52.298;8.056;2023-03-23T08:22:25;8.82;;;3.40;;
74624;SDS011;63131;52.298;8.056;2023-03-23T08:24:51;8.38;;;3.17;;
74624;SDS011;63131;52.298;8.056;2023-03-23T08:27:16;9.32;;;3.22;;
74624;SDS011;63131;52.298;8.056;2023-03-23T08:29:43;7.60;;;3.00;;
74624;SDS011;63131;52.298;8.056;2023-03-23T08:32:09;8.20;;;2.90;;
74624;SDS011;63131;52.298;8.056;2023-03-23T08:34:35;8.40;;;3.00;;
74624;SDS011;63131;52.298;8.056;2023-03-23T08:37:01;8.85;;;3.40;;
74624;SDS011;63131;52.298;8.056;2023-03-23T08:39:26;7.90;;;3.15;;
74624;SDS011;63131;52.298;8.056;2023-03-23T08:41:52;9.30;;;3.40;;
74624;SDS011;63131;52.298;8.056;2023-03-23T08:44:18;9.57;;;3.33;;
74624;SDS011;63131;52.298;8.056;2023-03-23T08:46:43;7.45;;;2.92;;
74624;SDS011;63131;52.298;8.056;2023-03-23T08:49:09;6.75;;;2.78;;
74624;SDS011;63131;52.298;8.056;2023-03-23T08:51:34;9.75;;;3.40;;
74624;SDS011;63131;52.298;8.056;2023-03-23T08:54:01;9.73;;;4.00;;
74624;SDS011;63131;52.298;8.056;2023-03-23T08:56:26;8.25;;;2.92;;
74624;SDS011;63131;52.298;8.056;2023-03-23T08:58:52;12.50;;;3.88;;
74624;SDS011;63131;52.298;8.056;2023-03-23T09:01:18;7.72;;;2.88;;
74624;SDS011;63131;52.298;8.056;2023-03-23T09:03:43;9.40;;;3.28;;
74624;SDS011;63131;52.298;8.056;2023-03-23T09:06:09;7.68;;;3.22;;
74624;SDS011;63131;52.298;8.056;2023-03-23T09:08:37;7.22;;;2.95;;
74624;SDS011;63131;52.298;8.056;2023-03-23T09:11:03;7.45;;;3.08;;
74624;SDS011;63131;52.298;8.056;2023-03-23T09:13:34;6.53;;;2.67;;
74624;SDS011;63131;52.298;8.056;2023-03-23T09:16:00;9.80;;;2.88;;
74624;SDS011;63131;52.298;8.056;2023-03-23T09:18:26;9.75;;;4.00;;
74624;SDS011;63131;52.298;8.056;2023-03-23T09:20:52;6.57;;;2.70;;
74624;SDS011;63131;52.298;8.056;2023-03-23T09:23:18;8.50;;;3.03;;
74624;SDS011;63131;52.298;8.056;2023-03-23T09:25:45;8.77;;;2.17;;
74624;SDS011;63131;52.298;8.056;2023-03-23T09:30:36;8.20;;;2.43;;
74624;SDS011;63131;52.298;8.056;2023-03-23T09:33:04;7.82;;;2.45;;
74624;SDS011;63131;52.298;8.056;2023-03-23T09:35:30;7.80;;;2.40;;
74624;SDS011;63131;52.298;8.056;2023-03-23T09:37:57;7.82;;;1.92;;
74624;SDS011;63131;52.298;8.056;2023-03-23T09:40:33;9.65;;;2.20;;
74624;SDS011;63131;52.298;8.056;2023-03-23T09:46:19;7.57;;;2.35;;
74624;SDS011;63131;52.298;8.056;2023-03-23T09:48:55;8.82;;;2.50;;
74624;SDS011;63131;52.298;8.056;2023-03-23T09:54:46;3.97;;;1.13;;
74624;SDS011;63131;52.298;8.056;2023-03-23T09:59:54;5.75;;;1.08;;
74624;SDS011;63131;52.298;8.056;2023-03-23T10:02:36;1.90;;;1.00;;
74624;SDS011;63131;52.298;8.056;2023-03-23T10:05:23;3.47;;;1.00;;
74624;SDS011;63131;52.298;8.056;2023-03-23T10:07:53;4.93;;;1.20;;
74624;SDS011;63131;52.298;8.056;2023-03-23T10:10:19;9.05;;;2.10;;
74624;SDS011;63131;52.298;8.056;2023-03-23T10:12:49;12.00;;;3.05;;
74624;SDS011;63131;52.298;8.056;2023-03-23T10:15:32;14.93;;;2.60;;
74624;SDS011;63131;52.298;8.056;2023-03-23T10:20:34;3.03;;;1.02;;
74624;SDS011;63131;52.298;8.056;2023-03-23T10:23:14;4.38;;;1.10;;
74624;SDS011;63131;52.298;8.056;2023-03-23T10:26:04;3.90;;;1.20;;
74624;SDS011;63131;52.298;8.056;2023-03-23T10:28:42;6.03;;;1.30;;
74624;SDS011;63131;52.298;8.056;2023-03-23T10:32:19;6.40;;;1.60;;
74624;SDS011;63131;52.298;8.056;2023-03-23T10:39:57;4.90;;;1.27;;
74624;SDS011;63131;52.298;8.056;2023-03-23T10:43:21;4.40;;;1.33;;
74624;SDS011;63131;52.298;8.056;2023-03-23T10:45:57;3.30;;;0.95;;
74624;SDS011;63131;52.298;8.056;2023-03-23T10:48:33;4.30;;;1.05;;
74624;SDS011;63131;52.298;8.056;2023-03-23T10:51:03;5.53;;;1.45;;
74624;SDS011;63131;52.298;8.056;2023-03-23T10:53:34;3.10;;;0.95;;
74624;SDS011;63131;52.298;8.056;2023-03-23T10:56:02;3.92;;;1.30;;
74624;SDS011;63131;52.298;8.056;2023-03-23T10:58:30;3.92;;;1.20;;
74624;SDS011;63131;52.298;8.056;2023-03-23T11:00:57;5.78;;;2.40;;
74624;SDS011;63131;52.298;8.056;2023-03-23T11:03:35;3.63;;;1.20;;
74624;SDS011;63131;52.298;8.056;2023-03-23T11:06:06;4.28;;;1.55;;
74624;SDS011;63131;52.298;8.056;2023-03-23T11:08:54;3.63;;;1.20;;
74624;SDS011;63131;52.298;8.056;2023-03-23T11:11:28;4.70;;;1.13;;
74624;SDS011;63131;52.298;8.056;2023-03-23T11:14:01;7.97;;;1.48;;
74624;SDS011;63131;52.298;8.056;2023-03-23T11:16:41;3.85;;;0.90;;
74624;SDS011;63131;52.298;8.056;2023-03-23T11:19:16;5.43;;;1.08;;
74624;SDS011;63131;52.298;8.056;2023-03-23T11:22:06;3.17;;;1.10;;
74624;SDS011;63131;52.298;8.056;2023-03-23T11:24:33;4.07;;;1.20;;
74624;SDS011;63131;52.298;8.056;2023-03-23T11:27:01;4.18;;;1.20;;
74624;SDS011;63131;52.298;8.056;2023-03-23T11:29:28;2.55;;;0.98;;
74624;SDS011;63131;52.298;8.056;2023-03-23T11:32:02;4.88;;;1.42;;
74624;SDS011;63131;52.298;8.056;2023-03-23T11:37:55;2.53;;;0.70;;
74624;SDS011;63131;52.298;8.056;2023-03-23T11:40:23;3.05;;;0.98;;
74624;SDS011;63131;52.298;8.056;2023-03-23T11:43:06;3.80;;;1.10;;
74624;SDS011;63131;52.298;8.056;2023-03-23T11:45:35;5.68;;;1.00;;
74624;SDS011;63131;52.298;8.056;2023-03-23T11:51:07;7.07;;;1.27;;
74624;SDS011;63131;52.298;8.056;2023-03-23T11:59:00;7.18;;;1.08;;
74624;SDS011;63131;52.298;8.056;2023-03-23T12:01:36;6.03;;;0.93;;
74624;SDS011;63131;52.298;8.056;2023-03-23T12:06:51;5.18;;;0.93;;
74624;SDS011;63131;52.298;8.056;2023-03-23T12:09:30;4.20;;;0.90;;
74624;SDS011;63131;52.298;8.056;2023-03-23T12:15:14;5.28;;;1.27;;
74624;SDS011;63131;52.298;8.056;2023-03-23T12:26:25;4.18;;;0.95;;
74624;SDS011;63131;52.298;8.056;2023-03-23T12:31:25;5.17;;;1.00;;
74624;SDS011;63131;52.298;8.056;2023-03-23T12:39:36;4.85;;;1.30;;
74624;SDS011;63131;52.298;8.056;2023-03-23T12:50:00;3.87;;;0.80;;
74624;SDS011;63131;52.298;8.056;2023-03-23T12:52:45;6.97;;;1.20;;
74624;SDS011;63131;52.298;8.056;2023-03-23T12:57:44;3.77;;;0.60;;
74624;SDS011;63131;52.298;8.056;2023-03-23T13:00:26;1.80;;;0.65;;
74624;SDS011;63131;52.298;8.056;2023-03-23T13:05:43;4.43;;;0.95;;
74624;SDS011;63131;52.298;8.056;2023-03-23T13:10:46;2.27;;;0.70;;
74624;SDS011;63131;52.298;8.056;2023-03-23T13:13:14;2.33;;;0.80;;
74624;SDS011;63131;52.298;8.056;2023-03-23T13:16:10;3.55;;;1.15;;
74624;SDS011;63131;52.298;8.056;2023-03-23T13:21:35;3.78;;;1.00;;
74624;SDS011;63131;52.298;8.056;2023-03-23T13:24:08;3.60;;;0.90;;
74624;SDS011;63131;52.298;8.056;2023-03-23T13:26:40;4.93;;;1.13;;
74624;SDS011;63131;52.298;8.056;2023-03-23T13:34:10;5.35;;;1.05;;
74624;SDS011;63131;52.298;8.056;2023-03-23T13:39:20;4.13;;;0.95;;
74624;SDS011;63131;52.298;8.056;2023-03-23T13:44:27;4.50;;;1.05;;
74624;SDS011;63131;52.298;8.056;2023-03-23T13:47:06;5.07;;;1.00;;
74624;SDS011;63131;52.298;8.056;2023-03-23T13:50:00;6.57;;;1.20;;
74624;SDS011;63131;52.298;8.056;2023-03-23T13:57:57;4.45;;;1.10;;
74624;SDS011;63131;52.298;8.056;2023-03-23T14:06:05;3.55;;;1.05;;
74624;SDS011;63131;52.298;8.056;2023-03-23T14:16:21;5.45;;;1.30;;
74624;SDS011;63131;52.298;8.056;2023-03-23T14:18:52;4.93;;;1.50;;
74624;SDS011;63131;52.298;8.056;2023-03-23T14:24:11;4.32;;;1.20;;
74624;SDS011;63131;52.298;8.056;2023-03-23T14:26:40;5.65;;;1.25;;
74624;SDS011;63131;52.298;8.056;2023-03-23T14:29:09;5.43;;;1.73;;
74624;SDS011;63131;52.298;8.056;2023-03-23T14:31:35;3.70;;;1.05;;
74624;SDS011;63131;52.298;8.056;2023-03-23T14:36:31;5.00;;;1.38;;
74624;SDS011;63131;52.298;8.056;2023-03-23T14:42:05;6.53;;;2.00;;
74624;SDS011;63131;52.298;8.056;2023-03-23T14:44:34;5.22;;;2.13;;
74624;SDS011;63131;52.298;8.056;2023-03-23T14:47:04;5.35;;;1.70;;
74624;SDS011;63131;52.298;8.056;2023-03-23T14:49:34;5.30;;;2.17;;
74624;SDS011;63131;52.298;8.056;2023-03-23T14:52:08;5.97;;;2.22;;
74624;SDS011;63131;52.298;8.056;2023-03-23T14:54:35;6.95;;;2.33;;
74624;SDS011;63131;52.298;8.056;2023-03-23T14:59:40;6.35;;;2.80;;
74624;SDS011;63131;52.298;8.056;2023-03-23T15:02:12;6.38;;;2.80;;
74624;SDS011;63131;52.298;8.056;2023-03-23T15:04:45;6.28;;;2.90;;
74624;SDS011;63131;52.298;8.056;2023-03-23T15:07:13;7.22;;;3.35;;
74624;SDS011;63131;52.298;8.056;2023-03-23T15:09:40;7.53;;;3.20;;
74624;SDS011;63131;52.298;8.056;2023-03-23T15:12:09;6.80;;;2.88;;
74624;SDS011;63131;52.298;8.056;2023-03-23T15:14:52;8.55;;;3.22;;
74624;SDS011;63131;52.298;8.056;2023-03-23T15:17:21;6.53;;;3.13;;
74624;SDS011;63131;52.298;8.056;2023-03-23T15:19:48;6.80;;;3.50;;
74624;SDS011;63131;52.298;8.056;2023-03-23T15:24:40;8.73;;;4.07;;
74624;SDS011;63131;52.298;8.056;2023-03-23T15:29:58;9.20;;;3.83;;
74624;SDS011;63131;52.298;8.056;2023-03-23T15:32:44;8.95;;;3.33;;
74624;SDS011;63131;52.298;8.056;2023-03-23T15:35:15;8.77;;;4.05;;
74624;SDS011;63131;52.298;8.056;2023-03-23T15:37:43;7.50;;;4.05;;
74624;SDS011;63131;52.298;8.056;2023-03-23T15:40:18;8.43;;;4.43;;
74624;SDS011;63131;52.298;8.056;2023-03-23T15:42:45;9.65;;;4.53;;
74624;SDS011;63131;52.298;8.056;2023-03-23T15:50:10;11.13;;;4.77;;
74624;SDS011;63131;52.298;8.056;2023-03-23T15:52:57;13.48;;;5.80;;
74624;SDS011;63131;52.298;8.056;2023-03-23T15:55:26;10.65;;;4.95;;
74624;SDS011;63131;52.298;8.056;2023-03-23T15:57:54;9.38;;;4.65;;
74624;SDS011;63131;52.298;8.056;2023-03-23T16:00:21;7.82;;;3.40;;
74624;SDS011;63131;52.298;8.056;2023-03-23T16:02:48;9.50;;;3.55;;
74624;SDS011;63131;52.298;8.056;2023-03-23T16:05:17;8.68;;;3.50;;
74624;SDS011;63131;52.298;8.056;2023-03-23T16:08:41;9.25;;;3.90;;
74624;SDS011;63131;52.298;8.056;2023-03-23T16:12:10;8.55;;;3.40;;
74624;SDS011;63131;52.298;8.056;2023-03-23T16:15:35;7.93;;;3.47;;
74624;SDS011;63131;52.298;8.056;2023-03-23T16:18:59;9.95;;;4.57;;
74624;SDS011;63131;52.298;8.056;2023-03-23T16:22:23;9.52;;;3.58;;
74624;SDS011;63131;52.298;8.056;2023-03-23T16:25:46;8.57;;;4.15;;
74624;SDS011;63131;52.298;8.056;2023-03-23T16:29:11;9.65;;;3.97;;
74624;SDS011;63131;52.298;8.056;2023-03-23T16:31:41;8.48;;;4.00;;
74624;SDS011;63131;52.298;8.056;2023-03-23T16:34:07;8.80;;;3.78;;
74624;SDS011;63131;52.298;8.056;2023-03-23T16:36:35;8.50;;;4.18;;
74624;SDS011;63131;52.298;8.056;2023-03-23T16:39:06;8.18;;;3.70;;
74624;SDS011;63131;52.298;8.056;2023-03-23T16:41:31;9.02;;;4.10;;
74624;SDS011;63131;52.298;8.056;2023-03-23T16:43:57;9.25;;;4.20;;
74624;SDS011;63131;52.298;8.056;2023-03-23T16:46:22;7.35;;;3.25;;
74624;SDS011;63131;52.298;8.056;2023-03-23T16:48:48;8.40;;;4.22;;
74624;SDS011;63131;52.298;8.056;2023-03-23T16:51:13;9.85;;;4.00;;
74624;SDS011;63131;52.298;8.056;2023-03-23T16:53:39;9.50;;;3.97;;
74624;SDS011;63131;52.298;8.056;2023-03-23T16:56:04;8.68;;;4.57;;
74624;SDS011;63131;52.298;8.056;2023-03-23T16:58:29;8.77;;;4.40;;
74624;SDS011;63131;52.298;8.056;2023-03-23T17:00:55;12.15;;;5.78;;
74624;SDS011;63131;52.298;8.056;2023-03-23T17:03:23;13.75;;;8.80;;
74624;SDS011;63131;52.298;8.056;2023-03-23T17:05:49;13.80;;;6.57;;
74624;SDS011;63131;52.298;8.056;2023-03-23T17:08:15;13.27;;;9.02;;
74624;SDS011;63131;52.298;8.056;2023-03-23T17:10:41;13.85;;;8.23;;
74624;SDS011;63131;52.298;8.056;2023-03-23T17:13:07;15.63;;;7.82;;
74624;SDS011;63131;52.298;8.056;2023-03-23T17:15:35;14.35;;;7.97;;
74624;SDS011;63131;52.298;8.056;2023-03-23T17:18:02;13.52;;;8.43;;
74624;SDS011;63131;52.298;8.056;2023-03-23T17:20:27;14.02;;;7.97;;
74624;SDS011;63131;52.298;8.056;2023-03-23T17:22:52;14.60;;;7.90;;
74624;SDS011;63131;52.298;8.056;2023-03-23T17:25:18;13.90;;;7.55;;
74624;SDS011;63131;52.298;8.056;2023-03-23T17:27:43;15.13;;;7.43;;
74624;SDS011;63131;52.298;8.056;2023-03-23T17:30:08;13.63;;;7.80;;
74624;SDS011;63131;52.298;8.056;2023-03-23T17:32:34;15.23;;;7.40;;
74624;SDS011;63131;52.298;8.056;2023-03-23T17:35:00;14.73;;;8.05;;
74624;SDS011;63131;52.298;8.056;2023-03-23T17:37:26;13.88;;;7.35;;
74624;SDS011;63131;52.298;8.056;2023-03-23T17:39:51;12.70;;;6.82;;
74624;SDS011;63131;52.298;8.056;2023-03-23T17:42:17;11.80;;;6.70;;
74624;SDS011;63131;52.298;8.056;2023-03-23T17:44:42;12.75;;;6.80;;
74624;SDS011;63131;52.298;8.056;2023-03-23T17:47:08;11.60;;;5.70;;